createdAt,value
2023-05-15T00:00:14.529Z,96462.25
2023-05-15T00:02:45.062Z,96455.44
2023-05-15T00:05:14.038Z,96454.03
2023-05-15T00:07:42.763Z,96449.41
2023-05-15T00:10:11.444Z,96449.41
2023-05-15T00:12:39.639Z,96445.94
2023-05-15T00:15:10.361Z,96454.34
2023-05-15T00:17:38.564Z,96448.13
2023-05-15T00:20:10.057Z,96449.28
2023-05-15T00:22:38.274Z,96447.69
2023-05-15T00:25:07.515Z,96443.25
2023-05-15T00:27:36.196Z,96445.44
2023-05-15T00:30:06.093Z,96443.22
2023-05-15T00:32:35.908Z,96433.22
2023-05-15T00:35:04.939Z,96436.41
2023-05-15T00:37:33.122Z,96439.72
2023-05-15T00:40:01.253Z,96436.41
2023-05-15T00:42:30.555Z,96432.59
2023-05-15T00:44:59.611Z,96428.81
2023-05-15T00:47:28.123Z,96433.41
2023-05-15T00:49:58.496Z,96421.53
2023-05-15T00:52:27.313Z,96425.31
2023-05-15T00:54:55.488Z,96408.84
2023-05-15T00:57:25.059Z,96414.88
2023-05-15T00:59:53.553Z,96420.41
2023-05-15T01:02:21.725Z,96424.06
2023-05-15T01:04:49.944Z,96424.56
2023-05-15T01:07:19.424Z,96422.47
2023-05-15T01:09:48.723Z,96425.34
2023-05-15T01:12:17.164Z,96420.91
2023-05-15T01:14:45.319Z,96421.88
2023-05-15T01:17:13.484Z,96419.63
2023-05-15T01:19:43.189Z,96422.66
2023-05-15T01:22:35.000Z,96418.06
2023-05-15T01:25:48.342Z,96415.81
2023-05-15T01:28:21.711Z,96419.31
2023-05-15T01:30:50.453Z,96416.00
2023-05-15T01:33:22.546Z,96420.28
2023-05-15T01:35:55.404Z,96416.16
2023-05-15T01:38:28.396Z,96419.03
2023-05-15T01:41:03.247Z,96421.56
2023-05-15T01:43:34.286Z,96418.38
2023-05-15T01:46:03.405Z,96422.34
2023-05-15T01:48:32.551Z,96419.00
2023-05-15T01:51:04.716Z,96416.31
2023-05-15T01:53:33.732Z,96424.06
2023-05-15T01:56:02.216Z,96427.25
2023-05-15T01:58:33.513Z,96417.09
2023-05-15T02:01:02.293Z,96425.69
2023-05-15T02:03:33.435Z,96424.09
2023-05-15T02:06:02.596Z,96417.75
2023-05-15T02:08:32.137Z,96422.03
2023-05-15T02:11:01.627Z,96422.16
2023-05-15T02:13:30.223Z,96421.38
2023-05-15T02:15:59.824Z,96416.34
2023-05-15T02:18:29.163Z,96419.03
2023-05-15T02:21:02.891Z,96414.59
2023-05-15T02:23:31.201Z,96423.44
2023-05-15T02:26:09.914Z,96424.41
2023-05-15T02:28:44.374Z,96415.22
2023-05-15T02:31:20.858Z,96422.97
2023-05-15T02:33:55.864Z,96422.97
2023-05-15T02:36:28.365Z,96417.28
2023-05-15T02:38:57.086Z,96421.56
2023-05-15T02:41:25.446Z,96416.47
2023-05-15T02:43:55.199Z,96419.47
2023-05-15T02:46:25.873Z,96422.34
2023-05-15T02:48:54.902Z,96415.84
2023-05-15T02:51:23.100Z,96417.13
2023-05-15T02:53:51.439Z,96409.81
2023-05-15T02:56:19.604Z,96402.69
2023-05-15T02:58:47.711Z,96411.28
2023-05-15T03:01:16.076Z,96411.09
2023-05-15T03:03:45.676Z,96409.38
2023-05-15T03:06:13.820Z,96409.81
2023-05-15T03:08:42.004Z,96414.22
2023-05-15T03:11:10.174Z,96420.25
2023-05-15T03:13:38.340Z,96413.63
2023-05-15T03:16:07.082Z,96417.88
2023-05-15T03:18:35.564Z,96422.81
2023-05-15T03:21:05.756Z,96421.72
2023-05-15T03:23:35.728Z,96422.66
2023-05-15T03:26:05.465Z,96413.91
2023-05-15T03:28:33.761Z,96417.88
2023-05-15T03:31:02.002Z,96417.44
2023-05-15T03:33:30.248Z,96423.44
2023-05-15T03:35:58.854Z,96419.81
2023-05-15T03:38:28.490Z,96416.19
2023-05-15T03:40:56.704Z,96420.47
2023-05-15T03:43:25.025Z,96422.81
2023-05-15T03:45:53.208Z,96419.00
2023-05-15T03:48:21.431Z,96419.81
2023-05-15T03:50:49.660Z,96417.91
2023-05-15T03:53:17.923Z,96420.91
2023-05-15T03:55:48.068Z,96416.19
2023-05-15T03:58:16.247Z,96419.31
2023-05-15T04:00:44.502Z,96417.13
2023-05-15T04:03:12.845Z,96427.41
2023-05-15T04:05:41.388Z,96424.72
2023-05-15T04:08:11.104Z,96427.09
2023-05-15T04:10:39.335Z,96429.78
2023-05-15T04:13:08.877Z,96433.28
2023-05-15T04:15:37.564Z,96413.94
2023-05-15T04:18:06.090Z,96428.06
2023-05-15T04:20:34.769Z,96431.34
2023-05-15T04:23:04.346Z,96429.16
2023-05-15T04:25:32.641Z,96436.13
2023-05-15T04:28:01.272Z,96432.44
2023-05-15T04:30:31.163Z,96438.91
2023-05-15T04:32:59.368Z,96435.75
2023-05-15T04:35:27.662Z,96437.69
2023-05-15T04:37:55.920Z,96450.19
2023-05-15T04:40:24.284Z,96444.97
2023-05-15T04:42:52.680Z,96443.50
2023-05-15T04:45:21.479Z,96441.78
2023-05-15T04:47:51.052Z,96437.03
2023-05-15T04:50:19.387Z,96443.06
2023-05-15T04:52:47.654Z,96432.91
2023-05-15T04:55:15.867Z,96436.25
2023-05-15T04:57:44.124Z,96438.63
2023-05-15T05:00:14.418Z,96435.63
2023-05-15T05:02:43.505Z,96435.44
2023-05-15T05:05:14.747Z,96439.09
2023-05-15T05:07:44.380Z,96439.09
2023-05-15T05:10:13.181Z,96445.59
2023-05-15T05:12:41.311Z,96443.38
2023-05-15T05:15:11.028Z,96436.25
2023-05-15T05:17:39.246Z,96447.47
2023-05-15T05:20:12.932Z,96444.78
2023-05-15T05:22:42.836Z,96442.25
2023-05-15T05:25:11.430Z,96443.69
2023-05-15T05:27:39.603Z,96453.63
2023-05-15T05:30:09.177Z,96442.09
2023-05-15T05:32:37.468Z,96451.44
2023-05-15T05:35:06.437Z,96441.16
2023-05-15T05:37:34.674Z,96439.72
2023-05-15T05:40:05.872Z,96454.28
2023-05-15T05:42:34.087Z,96451.44
2023-05-15T05:45:02.289Z,96452.06
2023-05-15T05:47:30.524Z,96454.28
2023-05-15T05:49:58.763Z,96460.47
2023-05-15T05:52:26.918Z,96452.84
2023-05-15T05:54:55.042Z,96463.31
2023-05-15T05:57:24.554Z,96460.47
2023-05-15T05:59:52.897Z,96464.03
2023-05-15T06:02:21.162Z,96471.47
2023-05-15T06:04:49.357Z,96470.47
2023-05-15T06:07:17.655Z,96471.41
2023-05-15T06:09:47.009Z,96473.00
2023-05-15T06:12:15.203Z,96476.50
2023-05-15T06:14:44.790Z,96476.69
2023-05-15T06:17:13.424Z,96470.53
2023-05-15T06:19:41.767Z,96474.59
2023-05-15T06:22:10.000Z,96474.94
2023-05-15T06:24:38.228Z,96476.38
2023-05-15T06:27:06.735Z,96475.91
2023-05-15T06:29:35.757Z,96475.56
2023-05-15T06:32:06.260Z,96473.66
2023-05-15T06:34:34.456Z,96479.91
2023-05-15T06:37:02.736Z,96480.28
2023-05-15T06:39:30.922Z,96474.25
2023-05-15T06:42:01.384Z,96477.09
2023-05-15T06:44:31.395Z,96471.84
2023-05-15T06:47:00.012Z,96476.03
2023-05-15T06:49:29.686Z,96480.09
2023-05-15T06:51:57.864Z,96475.13
2023-05-15T06:54:26.720Z,96480.72
2023-05-15T06:56:54.868Z,96489.44
2023-05-15T06:59:23.037Z,96479.22
2023-05-15T07:01:51.232Z,96487.78
2023-05-15T07:04:19.466Z,96488.72
2023-05-15T07:06:48.999Z,96486.09
2023-05-15T07:09:17.215Z,96485.28
2023-05-15T07:11:45.478Z,96485.09
2023-05-15T07:14:13.688Z,96488.34
2023-05-15T07:16:41.872Z,96486.41
2023-05-15T07:19:10.210Z,96485.66
2023-05-15T07:21:39.849Z,96498.94
2023-05-15T07:24:09.692Z,96499.53
2023-05-15T07:26:50.165Z,96497.09
2023-05-15T07:29:25.503Z,96499.63
2023-05-15T07:31:53.766Z,96495.25
2023-05-15T07:34:22.500Z,96507.31
2023-05-15T07:36:50.661Z,96497.69
2023-05-15T07:39:20.217Z,96499.16
2023-05-15T07:41:48.513Z,96494.72
2023-05-15T07:44:16.748Z,96497.91
2023-05-15T07:46:45.749Z,96496.19
2023-05-15T07:49:14.098Z,96492.75
2023-05-15T07:51:42.750Z,96490.22
2023-05-15T07:54:11.022Z,96484.03
2023-05-15T07:56:40.564Z,96488.31
2023-05-15T07:59:09.516Z,96481.69
2023-05-15T08:01:37.730Z,96488.47
2023-05-15T08:04:08.154Z,96497.22
2023-05-15T08:06:38.163Z,96484.84
2023-05-15T08:09:06.428Z,96488.84
2023-05-15T08:11:34.617Z,96490.44
2023-05-15T08:14:04.165Z,96489.31
2023-05-15T08:16:32.423Z,96495.66
2023-05-15T08:19:03.674Z,96502.00
2023-05-15T08:21:32.417Z,96498.84
2023-05-15T08:24:01.025Z,96505.19
2023-05-15T08:26:29.210Z,96501.66
2023-05-15T08:28:57.392Z,96502.31
2023-05-15T08:31:26.978Z,96499.00
2023-05-15T08:33:55.188Z,96494.88
2023-05-15T08:36:23.544Z,96498.50
2023-05-15T08:38:51.789Z,96505.16
2023-05-15T08:41:39.874Z,96491.19
2023-05-15T08:44:11.045Z,96498.94
2023-05-15T08:46:41.166Z,96498.63
2023-05-15T08:49:12.939Z,96486.19
2023-05-15T08:51:41.382Z,96495.53
2023-05-15T08:54:10.190Z,96498.69
2023-05-15T08:56:38.679Z,96490.84
2023-05-15T08:59:07.129Z,96492.56
2023-05-15T09:01:35.374Z,96487.88
2023-05-15T09:04:05.661Z,96478.50
2023-05-15T09:06:34.963Z,96482.47
2023-05-15T09:09:05.353Z,96477.56
2023-05-15T09:11:33.915Z,96472.19
2023-05-15T09:14:02.258Z,96474.25
2023-05-15T09:16:30.416Z,96463.38
2023-05-15T09:18:59.686Z,96471.22
2023-05-15T09:21:31.393Z,96462.13
2023-05-15T09:24:18.859Z,96456.94
2023-05-15T09:26:48.849Z,96463.66
2023-05-15T09:29:18.861Z,96452.25
2023-05-15T09:31:47.854Z,96453.53
2023-05-15T09:34:16.097Z,96448.50
2023-05-15T09:36:45.925Z,96443.00
2023-05-15T09:39:14.116Z,96443.56
2023-05-15T09:41:44.281Z,96447.38
2023-05-15T09:44:25.710Z,96443.59
2023-05-15T09:46:54.290Z,96438.13
2023-05-15T09:49:22.613Z,96436.50
2023-05-15T09:51:55.271Z,96436.47
2023-05-15T09:54:24.607Z,96429.31
2023-05-15T09:56:52.838Z,96438.31
2023-05-15T09:59:22.413Z,96444.16
2023-05-15T10:01:51.920Z,96449.28
2023-05-15T10:04:20.093Z,96448.56
2023-05-15T10:06:50.087Z,96448.03
2023-05-15T10:09:19.679Z,96447.44
2023-05-15T10:11:52.996Z,96438.84
2023-05-15T10:14:21.426Z,96426.38
2023-05-15T10:16:49.648Z,96426.78
2023-05-15T10:19:19.430Z,96439.28
2023-05-15T10:21:48.474Z,96439.56
2023-05-15T10:24:19.091Z,96436.66
2023-05-15T10:26:48.758Z,96433.88
2023-05-15T10:29:21.190Z,96427.28
2023-05-15T10:31:49.939Z,96414.94
2023-05-15T10:34:18.553Z,96412.06
2023-05-15T10:36:47.097Z,96407.88
2023-05-15T10:39:15.340Z,96405.13
2023-05-15T10:41:46.574Z,96401.25
2023-05-15T10:44:15.908Z,96393.06
2023-05-15T10:46:44.484Z,96398.69
2023-05-15T10:49:12.771Z,96393.41
2023-05-15T10:51:41.019Z,96399.16
2023-05-15T10:54:11.005Z,96393.41
2023-05-15T10:56:39.933Z,96396.22
2023-05-15T10:59:10.852Z,96392.63
2023-05-15T11:01:40.585Z,96393.19
2023-05-15T11:04:10.970Z,96388.22
2023-05-15T11:06:40.604Z,96383.47
2023-05-15T11:09:40.467Z,96376.94
2023-05-15T11:12:10.100Z,96371.94
2023-05-15T11:14:41.717Z,96370.03
2023-05-15T11:17:10.813Z,96364.53
2023-05-15T11:19:44.459Z,96359.41
2023-05-15T11:22:20.644Z,96361.44
2023-05-15T11:24:52.002Z,96367.28
2023-05-15T11:27:21.627Z,96355.34
2023-05-15T11:30:11.944Z,96362.34
2023-05-15T11:33:01.574Z,96355.53
2023-05-15T11:35:31.063Z,96342.53
2023-05-15T11:38:01.230Z,96346.13
2023-05-15T11:40:30.936Z,96350.44
2023-05-15T11:43:18.208Z,96340.78
2023-05-15T11:45:49.914Z,96334.97
2023-05-15T11:48:18.890Z,96337.22
2023-05-15T11:50:47.409Z,96329.75
2023-05-15T11:53:16.405Z,96322.72
2023-05-15T11:55:45.964Z,96319.69
2023-05-15T11:58:15.824Z,96328.34
2023-05-15T12:00:48.721Z,96335.13
2023-05-15T12:03:18.083Z,96323.56
2023-05-15T12:05:57.404Z,96331.53
2023-05-15T12:08:28.011Z,96329.44
2023-05-15T12:10:59.580Z,96346.84
2023-05-15T12:13:27.836Z,96344.53
2023-05-15T12:15:57.849Z,96351.38
2023-05-15T12:18:26.344Z,96349.81
2023-05-15T12:20:55.503Z,96341.47
2023-05-15T12:23:25.132Z,96343.69
2023-05-15T12:25:58.485Z,96346.00
2023-05-15T12:28:27.460Z,96347.47
2023-05-15T12:30:57.193Z,96342.09
2023-05-15T12:33:25.972Z,96346.06
2023-05-15T12:35:59.873Z,96351.59
2023-05-15T12:38:29.314Z,96353.84
2023-05-15T12:40:57.818Z,96351.59
2023-05-15T12:43:26.459Z,96355.66
2023-05-15T12:45:55.393Z,96356.09
2023-05-15T12:48:29.264Z,96357.19
2023-05-15T12:50:57.786Z,96354.09
2023-05-15T12:53:25.920Z,96353.31
2023-05-15T12:55:54.191Z,96355.19
2023-05-15T12:58:22.608Z,96356.06
2023-05-15T13:00:52.847Z,96357.44
2023-05-15T13:03:22.563Z,96353.72
2023-05-15T13:05:54.179Z,96350.94
2023-05-15T13:08:22.403Z,96346.03
2023-05-15T13:10:58.012Z,96340.63
2023-05-15T13:13:30.053Z,96345.66
2023-05-15T13:15:58.315Z,96340.28
2023-05-15T13:18:26.485Z,96335.97
2023-05-15T13:20:56.744Z,96342.97
2023-05-15T13:23:25.026Z,96354.31
2023-05-15T13:25:53.994Z,96352.91
2023-05-15T13:28:22.173Z,96346.59
2023-05-15T13:30:50.368Z,96349.81
2023-05-15T13:33:18.627Z,96358.16
2023-05-15T13:35:46.937Z,96357.63
2023-05-15T13:38:16.638Z,96356.53
2023-05-15T13:40:44.851Z,96366.41
2023-05-15T13:43:13.207Z,96357.84
2023-05-15T13:45:42.055Z,96371.13
2023-05-15T13:48:10.411Z,96366.25
2023-05-15T13:50:39.638Z,96367.97
2023-05-15T13:53:08.376Z,96370.97
2023-05-15T13:55:38.026Z,96374.13
2023-05-15T13:58:06.329Z,96365.63
2023-05-15T14:00:34.760Z,96371.59
2023-05-15T14:03:03.053Z,96364.44
2023-05-15T14:05:31.439Z,96368.25
2023-05-15T14:07:59.760Z,96360.22
2023-05-15T14:10:27.978Z,96357.19
2023-05-15T14:12:59.364Z,96356.47
2023-05-15T14:15:28.839Z,96361.53
2023-05-15T14:17:57.080Z,96372.78
2023-05-15T14:20:25.502Z,96364.19
2023-05-15T14:22:53.973Z,96368.59
2023-05-15T14:25:22.188Z,96365.97
2023-05-15T14:27:50.921Z,96360.75
2023-05-15T14:30:20.650Z,96370.25
2023-05-15T14:32:48.961Z,96367.84
2023-05-15T14:35:17.201Z,96367.75
2023-05-15T14:37:45.506Z,96367.84
2023-05-15T14:40:14.444Z,96364.97
2023-05-15T14:42:42.690Z,96370.25
2023-05-15T14:45:11.652Z,96372.41
2023-05-15T14:47:41.310Z,96372.84
2023-05-15T14:50:09.755Z,96377.34
2023-05-15T14:52:37.932Z,96376.31
2023-05-15T14:55:09.293Z,96381.19
2023-05-15T14:57:38.300Z,96388.66
2023-05-15T15:00:08.212Z,96393.06
2023-05-15T15:02:36.729Z,96399.03
2023-05-15T15:05:07.515Z,96394.41
2023-05-15T15:07:59.998Z,96407.78
2023-05-15T15:10:28.789Z,96396.78
2023-05-15T15:12:57.125Z,96401.19
2023-05-15T15:15:25.828Z,96391.53
2023-05-15T15:17:54.386Z,96390.34
2023-05-15T15:20:25.332Z,96394.88
2023-05-15T15:22:53.803Z,96391.69
2023-05-15T15:25:22.399Z,96400.03
2023-05-15T15:27:50.835Z,96403.63
2023-05-15T15:30:19.151Z,96406.31
2023-05-15T15:32:47.544Z,96408.84
2023-05-15T15:35:15.808Z,96409.50
2023-05-15T15:37:45.440Z,96412.41
2023-05-15T15:40:13.964Z,96401.81
2023-05-15T15:42:42.148Z,96404.59
2023-05-15T15:45:10.616Z,96405.78
2023-05-15T15:47:38.852Z,96415.78
2023-05-15T15:50:07.746Z,96401.19
2023-05-15T15:52:36.114Z,96406.34
2023-05-15T15:55:06.603Z,96395.75
2023-05-15T15:57:35.079Z,96398.59
2023-05-15T16:00:03.402Z,96388.28
2023-05-15T16:02:34.916Z,96391.81
2023-05-15T16:05:03.592Z,96392.69
2023-05-15T16:07:31.800Z,96392.41
2023-05-15T16:10:11.788Z,96400.16
2023-05-15T16:12:43.865Z,96395.16
2023-05-15T16:15:22.437Z,96397.19
2023-05-15T16:17:53.458Z,96403.00
2023-05-15T16:20:22.055Z,96403.03
2023-05-15T16:22:50.337Z,96397.16
2023-05-15T16:25:18.524Z,96402.22
2023-05-15T16:27:48.097Z,96405.53
2023-05-15T16:30:16.511Z,96402.44
2023-05-15T16:32:44.790Z,96405.50
2023-05-15T16:35:13.005Z,96410.63
2023-05-15T16:37:41.187Z,96413.56
2023-05-15T16:40:10.121Z,96418.75
2023-05-15T16:42:38.887Z,96414.72
2023-05-15T16:45:09.830Z,96414.28
2023-05-15T16:47:39.106Z,96422.41
2023-05-15T16:50:08.494Z,96422.81
2023-05-15T16:52:38.675Z,96427.13
2023-05-15T16:55:07.777Z,96430.94
2023-05-15T16:57:36.129Z,96437.28
2023-05-15T17:00:05.068Z,96442.94
2023-05-15T17:02:34.856Z,96449.09
2023-05-15T17:05:03.222Z,96444.25
2023-05-15T17:07:31.457Z,96445.59
2023-05-15T17:09:59.673Z,96447.72
2023-05-15T17:12:27.982Z,96455.72
2023-05-15T17:14:56.490Z,96448.38
2023-05-15T17:17:25.691Z,96464.50
2023-05-15T17:19:55.889Z,96458.88
2023-05-15T17:22:24.416Z,96462.72
2023-05-15T17:24:52.985Z,96460.91
2023-05-15T17:27:21.482Z,96460.69
2023-05-15T17:29:49.781Z,96475.78
2023-05-15T17:32:18.498Z,96478.59
2023-05-15T17:34:47.057Z,96482.91
2023-05-15T17:37:16.752Z,96491.13
2023-05-15T17:39:45.044Z,96488.97
2023-05-15T17:42:13.169Z,96489.25
2023-05-15T17:44:41.397Z,96491.50
2023-05-15T17:47:10.347Z,96489.13
2023-05-15T17:49:39.166Z,96494.34
2023-05-15T17:52:07.586Z,96497.81
2023-05-15T17:54:37.317Z,96491.16
2023-05-15T17:57:06.256Z,96501.44
2023-05-15T17:59:34.516Z,96509.63
2023-05-15T18:02:02.897Z,96510.31
2023-05-15T18:04:31.180Z,96513.13
2023-05-15T18:06:59.362Z,96509.03
2023-05-15T18:09:27.575Z,96505.56
2023-05-15T18:11:57.125Z,96503.31
2023-05-15T18:14:25.346Z,96508.63
2023-05-15T18:16:53.726Z,96518.16
2023-05-15T18:19:21.981Z,96522.66
2023-05-15T18:21:50.368Z,96525.59
2023-05-15T18:24:18.535Z,96520.00
2023-05-15T18:26:46.890Z,96521.47
2023-05-15T18:29:16.456Z,96517.44
2023-05-15T18:31:44.721Z,96526.81
2023-05-15T18:34:12.985Z,96521.06
2023-05-15T18:36:41.220Z,96515.22
2023-05-15T18:39:09.423Z,96517.38
2023-05-15T18:41:38.137Z,96513.34
2023-05-15T18:44:06.468Z,96517.59
2023-05-15T18:46:36.138Z,96518.41
2023-05-15T18:49:04.549Z,96515.38
2023-05-15T18:51:34.871Z,96518.50
2023-05-15T18:54:04.727Z,96520.16
2023-05-15T18:56:32.937Z,96525.91
2023-05-15T18:59:01.093Z,96523.63
2023-05-15T19:01:29.411Z,96531.03
2023-05-15T19:03:58.974Z,96530.53
2023-05-15T19:06:27.260Z,96533.25
2023-05-15T19:08:55.466Z,96535.16
2023-05-15T19:11:23.708Z,96535.06
2023-05-15T19:13:51.891Z,96529.66
2023-05-15T19:16:20.191Z,96533.09
2023-05-15T19:18:48.383Z,96535.47
2023-05-15T19:21:21.024Z,96532.91
2023-05-15T19:23:50.109Z,96540.00
2023-05-15T19:26:18.354Z,96527.88
2023-05-15T19:28:46.710Z,96531.34
2023-05-15T19:31:27.895Z,96534.06
2023-05-15T19:34:00.145Z,96533.25
2023-05-15T19:36:29.882Z,96532.03
2023-05-15T19:38:58.144Z,96543.06
2023-05-15T19:41:26.364Z,96544.84
2023-05-15T19:43:54.560Z,96543.97
2023-05-15T19:46:22.833Z,96546.63
2023-05-15T19:48:51.246Z,96550.63
2023-05-15T19:51:19.484Z,96559.06
2023-05-15T19:53:49.172Z,96557.84
2023-05-15T19:56:17.439Z,96554.94
2023-05-15T19:58:45.699Z,96555.66
2023-05-15T20:01:13.899Z,96554.06
2023-05-15T20:03:42.367Z,96556.22
2023-05-15T20:06:12.080Z,96558.44
2023-05-15T20:08:40.365Z,96566.16
2023-05-15T20:11:10.025Z,96551.66
2023-05-15T20:13:38.535Z,96556.56
2023-05-15T20:16:10.680Z,96562.16
2023-05-15T20:18:40.198Z,96559.94
2023-05-15T20:21:08.477Z,96559.56
2023-05-15T20:23:36.705Z,96551.00
2023-05-15T20:26:05.005Z,96553.88
2023-05-15T20:28:34.616Z,96552.44
2023-05-15T20:31:03.049Z,96555.16
2023-05-15T20:33:31.523Z,96550.84
2023-05-15T20:36:00.313Z,96552.31
2023-05-15T20:38:28.576Z,96554.53
2023-05-15T20:40:57.335Z,96555.34
2023-05-15T20:43:25.486Z,96562.16
2023-05-15T20:45:55.129Z,96555.34
2023-05-15T20:48:23.345Z,96551.38
2023-05-15T20:50:53.120Z,96559.16
2023-05-15T20:53:21.955Z,96558.44
2023-05-15T20:55:50.118Z,96560.31
2023-05-15T20:58:18.303Z,96556.50
2023-05-15T21:00:48.846Z,96556.50
2023-05-15T21:03:18.495Z,96553.34
2023-05-15T21:05:49.059Z,96552.41
2023-05-15T21:08:17.268Z,96557.81
2023-05-15T21:10:45.765Z,96554.63
2023-05-15T21:13:14.105Z,96549.88
2023-05-15T21:15:42.298Z,96552.75
2023-05-15T21:18:10.509Z,96549.63
2023-05-15T21:20:41.568Z,96546.44
2023-05-15T21:23:09.746Z,96549.78
2023-05-15T21:25:38.404Z,96543.94
2023-05-15T21:28:07.687Z,96546.16
2023-05-15T21:30:35.923Z,96545.22
2023-05-15T21:33:04.378Z,96547.44
2023-05-15T21:35:32.764Z,96549.22
2023-05-15T21:38:02.274Z,96551.91
2023-05-15T21:40:30.492Z,96547.16
2023-05-15T21:42:58.684Z,96548.44
2023-05-15T21:45:26.908Z,96540.72
2023-05-15T21:47:55.202Z,96541.66
2023-05-15T21:50:23.511Z,96545.81
2023-05-15T21:52:51.842Z,96539.94
2023-05-15T21:55:21.487Z,96541.47
2023-05-15T21:58:14.597Z,96546.88
2023-05-15T22:00:42.820Z,96547.06
2023-05-15T22:03:11.038Z,96547.06
2023-05-15T22:05:39.320Z,96545.47
2023-05-15T22:08:07.527Z,96557.41
2023-05-15T22:10:37.093Z,96567.38
2023-05-15T22:13:05.843Z,96569.28
2023-05-15T22:15:34.099Z,96561.50
2023-05-15T22:18:04.073Z,96569.94
2023-05-15T22:20:32.758Z,96571.19
2023-05-15T22:23:01.177Z,96571.69
2023-05-15T22:25:29.347Z,96573.25
2023-05-15T22:27:59.008Z,96572.97
2023-05-15T22:30:27.550Z,96560.94
2023-05-15T22:32:56.073Z,96568.53
2023-05-15T22:35:24.792Z,96572.31
2023-05-15T22:37:53.248Z,96566.78
2023-05-15T22:40:21.514Z,96575.19
2023-05-15T22:42:50.294Z,96566.94
2023-05-15T22:45:20.508Z,96571.88
2023-05-15T22:47:49.154Z,96571.53
2023-05-15T22:50:17.486Z,96571.72
2023-05-15T22:52:45.864Z,96572.81
2023-05-15T22:55:14.290Z,96570.44
2023-05-15T22:57:42.544Z,96562.69
2023-05-15T23:00:12.113Z,96567.59
2023-05-15T23:02:43.462Z,96569.66
2023-05-15T23:05:13.158Z,96561.72
2023-05-15T23:07:41.412Z,96566.19
2023-05-15T23:10:10.398Z,96571.41
2023-05-15T23:12:38.556Z,96561.75
2023-05-15T23:15:07.451Z,96564.88
2023-05-15T23:17:35.644Z,96558.88
2023-05-15T23:20:06.852Z,96567.13
2023-05-15T23:22:35.059Z,96566.00
2023-05-15T23:25:03.449Z,96569.34
2023-05-15T23:27:31.669Z,96571.56
2023-05-15T23:29:59.865Z,96569.34
2023-05-15T23:32:28.086Z,96572.38
2023-05-15T23:34:58.460Z,96557.44
2023-05-15T23:37:27.982Z,96563.00
2023-05-15T23:39:56.387Z,96562.22
2023-05-15T23:42:24.702Z,96557.44
2023-05-15T23:44:52.903Z,96557.44
2023-05-15T23:47:21.276Z,96560.63
2023-05-15T23:49:49.431Z,96554.28
2023-05-15T23:52:17.722Z,96551.91
2023-05-15T23:54:47.265Z,96556.50
2023-05-15T23:57:15.676Z,96547.16
2023-05-15T23:59:43.850Z,96556.34
